sensor_id;sensor_type;location;lat;lon;timestamp;pressure;altitude;pressure_sealevel;temperature;humidity
70009;BME280;59542;37.950;-122.338;2022-08-19T00:01:48;101140.19;;;20.63;60.62
70009;BME280;59542;37.950;-122.338;2022-08-19T00:04:16;101136.09;;;20.55;60.86
70009;BME280;59542;37.950;-122.338;2022-08-19T00:06:44;101141.13;;;20.42;61.59
70009;BME280;59542;37.950;-122.338;2022-08-19T00:09:13;101133.69;;;20.74;61.09
70009;BME280;59542;37.950;-122.338;2022-08-19T00:11:40;101138.31;;;20.69;60.67
70009;BME280;59542;37.950;-122.338;2022-08-19T00:14:08;101139.41;;;20.68;60.41
70009;BME280;59542;37.950;-122.338;2022-08-19T00:16:37;101143.44;;;20.65;61.12
70009;BME280;59542;37.950;-122.338;2022-08-19T00:19:04;101136.16;;;20.81;61.21
70009;BME280;59542;37.950;-122.338;2022-08-19T00:21:31;101130.75;;;20.86;60.54
70009;BME280;59542;37.950;-122.338;2022-08-19T00:23:57;101128.81;;;20.81;60.37
70009;BME280;59542;37.950;-122.338;2022-08-19T00:26:25;101130.50;;;20.98;60.57
70009;BME280;59542;37.950;-122.338;2022-08-19T00:28:52;101129.63;;;20.82;60.44
70009;BME280;59542;37.950;-122.338;2022-08-19T00:31:18;101135.06;;;20.82;60.15
70009;BME280;59542;37.950;-122.338;2022-08-19T00:33:44;101139.69;;;20.76;60.64
70009;BME280;59542;37.950;-122.338;2022-08-19T00:36:11;101138.06;;;20.80;60.35
70009;BME280;59542;37.950;-122.338;2022-08-19T00:38:39;101139.22;;;20.42;62.05
70009;BME280;59542;37.950;-122.338;2022-08-19T00:41:19;101137.47;;;20.63;61.44
70009;BME280;59542;37.950;-122.338;2022-08-19T00:46:31;101124.47;;;20.80;60.73
70009;BME280;59542;37.950;-122.338;2022-08-19T00:48:59;101127.19;;;20.80;60.71
70009;BME280;59542;37.950;-122.338;2022-08-19T00:51:27;101124.94;;;20.57;61.85
70009;BME280;59542;37.950;-122.338;2022-08-19T00:53:57;101121.00;;;20.33;62.78
70009;BME280;59542;37.950;-122.338;2022-08-19T00:56:24;101119.28;;;20.16;63.88
70009;BME280;59542;37.950;-122.338;2022-08-19T00:58:54;101116.53;;;20.11;63.99
70009;BME280;59542;37.950;-122.338;2022-08-19T01:01:21;101114.13;;;20.25;64.35
70009;BME280;59542;37.950;-122.338;2022-08-19T01:03:47;101106.22;;;19.76;65.41
70009;BME280;59542;37.950;-122.338;2022-08-19T01:06:14;101121.25;;;19.57;66.86
70009;BME280;59542;37.950;-122.338;2022-08-19T01:08:40;101126.41;;;19.58;66.52
70009;BME280;59542;37.950;-122.338;2022-08-19T01:11:07;101113.38;;;19.55;67.05
70009;BME280;59542;37.950;-122.338;2022-08-19T01:13:34;101105.69;;;19.47;66.83
70009;BME280;59542;37.950;-122.338;2022-08-19T01:16:05;101110.19;;;19.63;67.28
70009;BME280;59542;37.950;-122.338;2022-08-19T01:18:36;101115.31;;;19.28;67.96
70009;BME280;59542;37.950;-122.338;2022-08-19T01:23:50;101091.47;;;19.35;68.01
70009;BME280;59542;37.950;-122.338;2022-08-19T01:26:20;101101.41;;;19.51;67.32
70009;BME280;59542;37.950;-122.338;2022-08-19T01:28:49;101092.16;;;19.20;68.01
70009;BME280;59542;37.950;-122.338;2022-08-19T01:31:19;101093.00;;;19.25;68.43
70009;BME280;59542;37.950;-122.338;2022-08-19T01:33:48;101099.84;;;19.01;68.96
70009;BME280;59542;37.950;-122.338;2022-08-19T01:36:26;101093.88;;;19.04;68.94
70009;BME280;59542;37.950;-122.338;2022-08-19T01:38:54;101098.88;;;19.12;68.79
70009;BME280;59542;37.950;-122.338;2022-08-19T01:41:21;101101.41;;;18.97;69.65
70009;BME280;59542;37.950;-122.338;2022-08-19T01:43:50;101088.72;;;18.76;70.24
70009;BME280;59542;37.950;-122.338;2022-08-19T01:46:17;101095.06;;;18.86;70.06
70009;BME280;59542;37.950;-122.338;2022-08-19T01:48:44;101098.66;;;18.92;70.23
70009;BME280;59542;37.950;-122.338;2022-08-19T01:51:12;101106.00;;;18.69;70.31
70009;BME280;59542;37.950;-122.338;2022-08-19T01:53:38;101102.28;;;18.76;70.58
70009;BME280;59542;37.950;-122.338;2022-08-19T01:56:05;101101.25;;;18.60;71.49
70009;BME280;59542;37.950;-122.338;2022-08-19T01:58:38;101102.09;;;18.60;71.65
70009;BME280;59542;37.950;-122.338;2022-08-19T02:01:07;101102.19;;;18.48;71.52
70009;BME280;59542;37.950;-122.338;2022-08-19T02:03:33;101109.56;;;18.31;71.96
70009;BME280;59542;37.950;-122.338;2022-08-19T02:06:03;101103.75;;;18.23;72.53
70009;BME280;59542;37.950;-122.338;2022-08-19T02:08:32;101108.97;;;18.07;73.18
70009;BME280;59542;37.950;-122.338;2022-08-19T02:10:58;101111.53;;;18.36;71.88
70009;BME280;59542;37.950;-122.338;2022-08-19T02:13:25;101119.22;;;18.44;71.69
70009;BME280;59542;37.950;-122.338;2022-08-19T02:15:51;101119.09;;;18.34;72.36
70009;BME280;59542;37.950;-122.338;2022-08-19T02:18:18;101117.44;;;18.11;73.24
70009;BME280;59542;37.950;-122.338;2022-08-19T02:20:45;101122.44;;;17.85;73.61
70009;BME280;59542;37.950;-122.338;2022-08-19T02:23:14;101117.78;;;17.81;74.53
70009;BME280;59542;37.950;-122.338;2022-08-19T02:25:41;101126.16;;;17.79;73.94
70009;BME280;59542;37.950;-122.338;2022-08-19T02:28:08;101119.38;;;17.48;75.45
70009;BME280;59542;37.950;-122.338;2022-08-19T02:30:34;101116.53;;;17.72;74.83
70009;BME280;59542;37.950;-122.338;2022-08-19T02:33:00;101118.28;;;17.78;74.48
70009;BME280;59542;37.950;-122.338;2022-08-19T02:35:26;101121.94;;;17.55;75.56
70009;BME280;59542;37.950;-122.338;2022-08-19T02:37:53;101123.31;;;17.57;75.05
70009;BME280;59542;37.950;-122.338;2022-08-19T02:40:37;101124.56;;;17.50;75.08
70009;BME280;59542;37.950;-122.338;2022-08-19T02:43:06;101123.88;;;17.59;75.38
70009;BME280;59542;37.950;-122.338;2022-08-19T02:45:38;101129.28;;;17.42;75.71
70009;BME280;59542;37.950;-122.338;2022-08-19T02:48:08;101134.00;;;17.19;76.88
70009;BME280;59542;37.950;-122.338;2022-08-19T02:50:38;101129.56;;;17.12;76.92
70009;BME280;59542;37.950;-122.338;2022-08-19T02:53:06;101140.25;;;16.91;77.86
70009;BME280;59542;37.950;-122.338;2022-08-19T02:55:34;101140.03;;;16.69;78.84
70009;BME280;59542;37.950;-122.338;2022-08-19T02:58:00;101138.66;;;16.78;79.08
70009;BME280;59542;37.950;-122.338;2022-08-19T03:00:27;101135.94;;;16.78;78.84
70009;BME280;59542;37.950;-122.338;2022-08-19T03:02:53;101134.16;;;16.83;78.06
70009;BME280;59542;37.950;-122.338;2022-08-19T03:05:25;101135.56;;;16.86;78.11
70009;BME280;59542;37.950;-122.338;2022-08-19T03:07:53;101141.69;;;16.81;78.06
70009;BME280;59542;37.950;-122.338;2022-08-19T03:10:19;101142.16;;;16.78;77.99
70009;BME280;59542;37.950;-122.338;2022-08-19T03:12:45;101148.03;;;16.63;78.29
70009;BME280;59542;37.950;-122.338;2022-08-19T03:15:12;101141.81;;;16.63;78.58
70009;BME280;59542;37.950;-122.338;2022-08-19T03:17:43;101141.56;;;16.64;78.01
70009;BME280;59542;37.950;-122.338;2022-08-19T03:20:10;101142.91;;;16.50;78.54
70009;BME280;59542;37.950;-122.338;2022-08-19T03:22:36;101147.81;;;16.53;78.59
70009;BME280;59542;37.950;-122.338;2022-08-19T03:25:03;101144.41;;;16.58;78.05
70009;BME280;59542;37.950;-122.338;2022-08-19T03:27:29;101153.44;;;16.63;77.73
70009;BME280;59542;37.950;-122.338;2022-08-19T03:29:55;101141.28;;;16.49;78.56
70009;BME280;59542;37.950;-122.338;2022-08-19T03:32:22;101146.06;;;16.47;78.81
70009;BME280;59542;37.950;-122.338;2022-08-19T03:34:48;101161.44;;;16.58;78.08
70009;BME280;59542;37.950;-122.338;2022-08-19T03:37:16;101153.50;;;16.40;78.95
70009;BME280;59542;37.950;-122.338;2022-08-19T03:39:42;101153.00;;;16.43;78.86
70009;BME280;59542;37.950;-122.338;2022-08-19T03:42:09;101149.59;;;16.48;78.97
70009;BME280;59542;37.950;-122.338;2022-08-19T03:44:36;101155.34;;;16.51;79.09
70009;BME280;59542;37.950;-122.338;2022-08-19T03:47:04;101158.31;;;16.50;79.06
70009;BME280;59542;37.950;-122.338;2022-08-19T03:49:32;101145.22;;;16.58;78.65
70009;BME280;59542;37.950;-122.338;2022-08-19T03:52:01;101150.63;;;16.58;78.75
70009;BME280;59542;37.950;-122.338;2022-08-19T03:54:27;101145.22;;;16.58;78.44
70009;BME280;59542;37.950;-122.338;2022-08-19T03:56:55;101163.72;;;16.50;79.29
70009;BME280;59542;37.950;-122.338;2022-08-19T03:59:31;101155.50;;;16.45;79.57
70009;BME280;59542;37.950;-122.338;2022-08-19T04:02:00;101161.97;;;16.44;79.82
70009;BME280;59542;37.950;-122.338;2022-08-19T04:04:28;101157.00;;;16.52;79.78
70009;BME280;59542;37.950;-122.338;2022-08-19T04:06:55;101157.56;;;16.54;79.40
70009;BME280;59542;37.950;-122.338;2022-08-19T04:09:22;101152.09;;;16.49;79.60
70009;BME280;59542;37.950;-122.338;2022-08-19T04:11:51;101150.63;;;16.58;79.43
70009;BME280;59542;37.950;-122.338;2022-08-19T04:14:25;101152.16;;;16.66;79.06
70009;BME280;59542;37.950;-122.338;2022-08-19T04:16:52;101153.44;;;16.63;78.90
70009;BME280;59542;37.950;-122.338;2022-08-19T04:19:19;101159.84;;;16.46;79.57
70009;BME280;59542;37.950;-122.338;2022-08-19T04:21:49;101156.47;;;16.27;79.85
70009;BME280;59542;37.950;-122.338;2022-08-19T04:24:15;101158.91;;;16.17;80.04
70009;BME280;59542;37.950;-122.338;2022-08-19T04:26:42;101163.38;;;16.11;80.57
70009;BME280;59542;37.950;-122.338;2022-08-19T04:29:21;101161.50;;;16.00;81.40
70009;BME280;59542;37.950;-122.338;2022-08-19T04:31:51;101161.97;;;16.08;81.22
70009;BME280;59542;37.950;-122.338;2022-08-19T04:34:20;101166.28;;;16.09;80.99
70009;BME280;59542;37.950;-122.338;2022-08-19T04:36:52;101173.56;;;15.97;81.42
70009;BME280;59542;37.950;-122.338;2022-08-19T04:39:22;101172.06;;;16.01;81.52
70009;BME280;59542;37.950;-122.338;2022-08-19T04:41:48;101174.63;;;16.08;81.12
70009;BME280;59542;37.950;-122.338;2022-08-19T04:44:35;101167.59;;;16.07;81.02
70009;BME280;59542;37.950;-122.338;2022-08-19T04:47:02;101159.13;;;16.03;80.91
70009;BME280;59542;37.950;-122.338;2022-08-19T04:49:31;101160.69;;;15.99;81.31
70009;BME280;59542;37.950;-122.338;2022-08-19T04:51:57;101156.81;;;15.95;81.51
70009;BME280;59542;37.950;-122.338;2022-08-19T04:54:25;101162.06;;;15.78;82.26
70009;BME280;59542;37.950;-122.338;2022-08-19T04:56:52;101169.34;;;15.90;81.60
70009;BME280;59542;37.950;-122.338;2022-08-19T04:59:20;101179.06;;;15.79;82.66
70009;BME280;59542;37.950;-122.338;2022-08-19T05:01:47;101175.53;;;15.67;83.45
70009;BME280;59542;37.950;-122.338;2022-08-19T05:04:17;101159.38;;;15.48;84.67
70009;BME280;59542;37.950;-122.338;2022-08-19T05:06:45;101159.41;;;15.60;83.62
70009;BME280;59542;37.950;-122.338;2022-08-19T05:09:13;101143.81;;;15.62;83.30
70009;BME280;59542;37.950;-122.338;2022-08-19T05:11:39;101153.34;;;15.65;83.04
70009;BME280;59542;37.950;-122.338;2022-08-19T05:14:07;101149.16;;;15.80;82.14
70009;BME280;59542;37.950;-122.338;2022-08-19T05:16:33;101140.34;;;15.73;82.08
70009;BME280;59542;37.950;-122.338;2022-08-19T05:19:00;101131.31;;;15.68;82.59
70009;BME280;59542;37.950;-122.338;2022-08-19T05:21:44;101135.88;;;15.79;82.75
70009;BME280;59542;37.950;-122.338;2022-08-19T05:24:29;101133.06;;;15.74;nan
70009;BME280;59542;37.950;-122.338;2022-08-19T05:26:56;101131.06;;;15.81;83.38
70009;BME280;59542;37.950;-122.338;2022-08-19T05:29:24;101141.66;;;15.82;83.86
70009;BME280;59542;37.950;-122.338;2022-08-19T05:31:52;101135.75;;;15.74;84.14
70009;BME280;59542;37.950;-122.338;2022-08-19T05:34:20;101130.75;;;15.89;83.49
70009;BME280;59542;37.950;-122.338;2022-08-19T05:36:49;101121.09;;;15.81;82.65
70009;BME280;59542;37.950;-122.338;2022-08-19T05:39:18;101130.38;;;15.97;81.67
70009;BME280;59542;37.950;-122.338;2022-08-19T05:41:46;101124.53;;;16.00;81.34
70009;BME280;59542;37.950;-122.338;2022-08-19T05:44:13;101130.03;;;15.94;81.52
70009;BME280;59542;37.950;-122.338;2022-08-19T05:46:40;101124.97;;;15.97;81.61
70009;BME280;59542;37.950;-122.338;2022-08-19T05:49:08;101129.56;;;15.85;82.10
70009;BME280;59542;37.950;-122.338;2022-08-19T05:51:36;101132.84;;;15.87;82.43
70009;BME280;59542;37.950;-122.338;2022-08-19T05:54:04;101130.97;;;15.99;81.86
70009;BME280;59542;37.950;-122.338;2022-08-19T05:56:32;101135.53;;;15.99;82.09
70009;BME280;59542;37.950;-122.338;2022-08-19T05:59:02;101131.81;;;16.00;81.89
70009;BME280;59542;37.950;-122.338;2022-08-19T06:01:29;101138.03;;;16.00;82.53
70009;BME280;59542;37.950;-122.338;2022-08-19T06:03:55;101136.13;;;15.89;82.42
70009;BME280;59542;37.950;-122.338;2022-08-19T06:06:22;101128.88;;;16.01;82.42
70009;BME280;59542;37.950;-122.338;2022-08-19T06:08:48;101136.25;;;16.06;81.60
70009;BME280;59542;37.950;-122.338;2022-08-19T06:11:23;101136.00;;;16.07;81.32
70009;BME280;59542;37.950;-122.338;2022-08-19T06:13:52;101134.84;;;16.03;81.35
70009;BME280;59542;37.950;-122.338;2022-08-19T06:16:22;101137.09;;;16.06;81.51
70009;BME280;59542;37.950;-122.338;2022-08-19T06:18:52;101135.66;;;16.04;81.54
70009;BME280;59542;37.950;-122.338;2022-08-19T06:21:20;101127.09;;;15.95;81.85
70009;BME280;59542;37.950;-122.338;2022-08-19T06:23:48;101140.00;;;15.93;81.81
70009;BME280;59542;37.950;-122.338;2022-08-19T06:26:16;101133.06;;;15.97;81.56
70009;BME280;59542;37.950;-122.338;2022-08-19T06:28:43;101127.34;;;16.05;81.63
70009;BME280;59542;37.950;-122.338;2022-08-19T06:31:14;101133.91;;;16.09;81.11
70009;BME280;59542;37.950;-122.338;2022-08-19T06:33:43;101134.38;;;15.95;81.96
70009;BME280;59542;37.950;-122.338;2022-08-19T06:36:24;101127.47;;;16.10;81.39
70009;BME280;59542;37.950;-122.338;2022-08-19T06:38:56;101124.66;;;16.05;81.09
70009;BME280;59542;37.950;-122.338;2022-08-19T06:41:26;101127.78;;;16.02;81.40
70009;BME280;59542;37.950;-122.338;2022-08-19T06:43:53;101125.81;;;16.21;80.23
70009;BME280;59542;37.950;-122.338;2022-08-19T06:46:20;101131.44;;;16.08;80.49
70009;BME280;59542;37.950;-122.338;2022-08-19T06:48:47;101124.28;;;16.02;80.77
70009;BME280;59542;37.950;-122.338;2022-08-19T06:51:16;101121.94;;;16.05;80.37
70009;BME280;59542;37.950;-122.338;2022-08-19T06:53:48;101129.56;;;15.97;80.38
70009;BME280;59542;37.950;-122.338;2022-08-19T06:56:17;101126.16;;;15.78;81.51
70009;BME280;59542;37.950;-122.338;2022-08-19T06:58:44;101128.38;;;15.81;81.50
70009;BME280;59542;37.950;-122.338;2022-08-19T07:01:11;101128.50;;;15.86;81.69
70009;BME280;59542;37.950;-122.338;2022-08-19T07:03:38;101124.75;;;15.87;81.24
70009;BME280;59542;37.950;-122.338;2022-08-19T07:06:11;101123.91;;;15.98;81.01
70009;BME280;59542;37.950;-122.338;2022-08-19T07:08:38;101136.38;;;15.99;80.95
70009;BME280;59542;37.950;-122.338;2022-08-19T07:11:10;101130.88;;;15.94;81.00
70009;BME280;59542;37.950;-122.338;2022-08-19T07:13:37;101122.16;;;15.92;80.73
70009;BME280;59542;37.950;-122.338;2022-08-19T07:16:08;101123.47;;;15.78;81.02
70009;BME280;59542;37.950;-122.338;2022-08-19T07:18:35;101124.97;;;15.86;80.75
70009;BME280;59542;37.950;-122.338;2022-08-19T07:21:06;101129.94;;;15.58;81.29
70009;BME280;59542;37.950;-122.338;2022-08-19T07:23:33;101124.66;;;15.40;82.54
70009;BME280;59542;37.950;-122.338;2022-08-19T07:28:33;101118.81;;;15.55;82.17
70009;BME280;59542;37.950;-122.338;2022-08-19T07:31:00;101122.69;;;15.59;82.29
70009;BME280;59542;37.950;-122.338;2022-08-19T07:33:27;101117.56;;;15.69;81.22
70009;BME280;59542;37.950;-122.338;2022-08-19T07:35:55;101121.63;;;15.60;81.65
70009;BME280;59542;37.950;-122.338;2022-08-19T07:38:21;101118.50;;;15.63;82.52
70009;BME280;59542;37.950;-122.338;2022-08-19T07:40:48;101116.38;;;15.65;82.21
70009;BME280;59542;37.950;-122.338;2022-08-19T07:43:14;101115.56;;;15.65;82.54
70009;BME280;59542;37.950;-122.338;2022-08-19T07:45:41;101126.41;;;15.46;83.13
70009;BME280;59542;37.950;-122.338;2022-08-19T07:48:07;101123.84;;;15.51;83.32
70009;BME280;59542;37.950;-122.338;2022-08-19T07:50:34;101125.84;;;15.56;83.43
70009;BME280;59542;37.950;-122.338;2022-08-19T07:53:00;101130.94;;;15.64;82.97
70009;BME280;59542;37.950;-122.338;2022-08-19T07:55:26;101132.53;;;15.53;83.03
70009;BME280;59542;37.950;-122.338;2022-08-19T07:57:52;101130.31;;;15.62;82.49
70009;BME280;59542;37.950;-122.338;2022-08-19T08:00:19;101127.09;;;15.72;82.40
70009;BME280;59542;37.950;-122.338;2022-08-19T08:02:45;101120.75;;;15.66;82.00
70009;BME280;59542;37.950;-122.338;2022-08-19T08:05:11;101119.00;;;15.72;82.02
70009;BME280;59542;37.950;-122.338;2022-08-19T08:07:56;101129.06;;;15.65;82.10
70009;BME280;59542;37.950;-122.338;2022-08-19T08:10:40;101124.28;;;15.67;81.25
70009;BME280;59542;37.950;-122.338;2022-08-19T08:13:07;101114.59;;;15.59;81.12
70009;BME280;59542;37.950;-122.338;2022-08-19T08:15:34;101108.06;;;15.67;80.51
70009;BME280;59542;37.950;-122.338;2022-08-19T08:18:02;101106.72;;;15.46;81.78
70009;BME280;59542;37.950;-122.338;2022-08-19T08:20:29;101099.00;;;15.49;82.05
70009;BME280;59542;37.950;-122.338;2022-08-19T08:22:55;101086.19;;;15.45;81.81
70009;BME280;59542;37.950;-122.338;2022-08-19T08:25:40;101094.75;;;15.42;81.92
70009;BME280;59542;37.950;-122.338;2022-08-19T08:28:06;101089.44;;;15.35;82.28
70009;BME280;59542;37.950;-122.338;2022-08-19T08:30:33;101090.66;;;15.39;82.31
70009;BME280;59542;37.950;-122.338;2022-08-19T08:33:01;101082.09;;;15.54;81.54
70009;BME280;59542;37.950;-122.338;2022-08-19T08:35:27;101087.47;;;15.54;81.52
70009;BME280;59542;37.950;-122.338;2022-08-19T08:37:54;101081.75;;;15.50;82.06
70009;BME280;59542;37.950;-122.338;2022-08-19T08:43:27;101083.50;;;15.56;81.54
70009;BME280;59542;37.950;-122.338;2022-08-19T08:46:24;101081.97;;;15.49;81.62
70009;BME280;59542;37.950;-122.338;2022-08-19T08:49:11;101078.22;;;15.38;82.15
70009;BME280;59542;37.950;-122.338;2022-08-19T08:51:48;101074.59;;;15.44;82.09
70009;BME280;59542;37.950;-122.338;2022-08-19T08:54:19;101074.09;;;15.47;82.26
70009;BME280;59542;37.950;-122.338;2022-08-19T08:56:46;101077.75;;;15.53;81.73
70009;BME280;59542;37.950;-122.338;2022-08-19T09:01:51;101069.06;;;15.39;82.28
70009;BME280;59542;37.950;-122.338;2022-08-19T09:04:17;101069.53;;;15.48;81.83
70009;BME280;59542;37.950;-122.338;2022-08-19T09:09:43;101067.66;;;15.48;81.30
70009;BME280;59542;37.950;-122.338;2022-08-19T09:12:30;101078.31;;;15.43;81.47
70009;BME280;59542;37.950;-122.338;2022-08-19T09:15:02;101071.38;;;15.36;81.49
70009;BME280;59542;37.950;-122.338;2022-08-19T09:17:30;101070.34;;;15.37;81.46
70009;BME280;59542;37.950;-122.338;2022-08-19T09:20:04;101064.81;;;15.31;81.60
70009;BME280;59542;37.950;-122.338;2022-08-19T09:22:35;101068.31;;;15.32;81.00
70009;BME280;59542;37.950;-122.338;2022-08-19T09:25:02;101065.41;;;15.34;80.96
70009;BME280;59542;37.950;-122.338;2022-08-19T09:27:29;101063.16;;;15.30;80.90
70009;BME280;59542;37.950;-122.338;2022-08-19T09:29:55;101051.56;;;15.30;80.54
70009;BME280;59542;37.950;-122.338;2022-08-19T09:32:22;101052.88;;;15.27;80.87
70009;BME280;59542;37.950;-122.338;2022-08-19T09:34:49;101044.84;;;15.21;81.42
70009;BME280;59542;37.950;-122.338;2022-08-19T09:37:15;101050.16;;;15.16;81.60
70009;BME280;59542;37.950;-122.338;2022-08-19T09:39:41;101051.19;;;15.15;81.75
70009;BME280;59542;37.950;-122.338;2022-08-19T09:42:08;101054.47;;;15.17;81.62
70009;BME280;59542;37.950;-122.338;2022-08-19T09:44:42;101058.00;;;15.17;81.54
70009;BME280;59542;37.950;-122.338;2022-08-19T09:47:10;101058.34;;;15.21;81.38
70009;BME280;59542;37.950;-122.338;2022-08-19T09:49:37;101050.25;;;15.21;81.33
70009;BME280;59542;37.950;-122.338;2022-08-19T09:52:05;101046.28;;;15.23;81.13
70009;BME280;59542;37.950;-122.338;2022-08-19T09:54:33;101049.09;;;15.17;82.20
70009;BME280;59542;37.950;-122.338;2022-08-19T09:57:00;101049.22;;;15.22;82.37
70009;BME280;59542;37.950;-122.338;2022-08-19T09:59:27;101046.72;;;15.20;81.91
70009;BME280;59542;37.950;-122.338;2022-08-19T10:01:54;101038.44;;;15.22;82.27
70009;BME280;59542;37.950;-122.338;2022-08-19T10:04:20;101043.56;;;15.12;82.16
70009;BME280;59542;37.950;-122.338;2022-08-19T10:06:48;101044.75;;;15.16;82.29
70009;BME280;59542;37.950;-122.338;2022-08-19T10:09:16;101037.94;;;15.13;82.26
70009;BME280;59542;37.950;-122.338;2022-08-19T10:11:44;101044.38;;;15.12;81.74
70009;BME280;59542;37.950;-122.338;2022-08-19T10:14:14;101049.97;;;14.99;81.83
70009;BME280;59542;37.950;-122.338;2022-08-19T10:16:42;101047.19;;;15.05;81.76
70009;BME280;59542;37.950;-122.338;2022-08-19T10:19:09;101046.38;;;15.05;81.48
70009;BME280;59542;37.950;-122.338;2022-08-19T10:21:36;101051.25;;;14.96;81.43
70009;BME280;59542;37.950;-122.338;2022-08-19T10:24:04;101044.66;;;14.92;81.56
70009;BME280;59542;37.950;-122.338;2022-08-19T10:26:34;101044.13;;;15.02;81.35
70009;BME280;59542;37.950;-122.338;2022-08-19T10:29:03;101047.09;;;14.82;82.45
70009;BME280;59542;37.950;-122.338;2022-08-19T10:31:32;101046.66;;;14.85;82.22
70009;BME280;59542;37.950;-122.338;2022-08-19T10:34:00;101039.41;;;14.97;82.01
70009;BME280;59542;37.950;-122.338;2022-08-19T10:36:32;101027.78;;;14.85;82.80
70009;BME280;59542;37.950;-122.338;2022-08-19T10:39:02;101030.81;;;14.77;83.61
70009;BME280;59542;37.950;-122.338;2022-08-19T10:41:31;101038.69;;;14.90;83.53
70009;BME280;59542;37.950;-122.338;2022-08-19T10:44:05;101032.25;;;14.91;83.75
70009;BME280;59542;37.950;-122.338;2022-08-19T10:46:35;101041.69;;;14.82;84.40
70009;BME280;59542;37.950;-122.338;2022-08-19T10:49:03;101032.91;;;14.75;84.74
70009;BME280;59542;37.950;-122.338;2022-08-19T10:51:31;101032.13;;;14.86;84.36
70009;BME280;59542;37.950;-122.338;2022-08-19T10:54:16;101034.81;;;14.86;84.47
70009;BME280;59542;37.950;-122.338;2022-08-19T10:56:43;101027.78;;;14.85;84.23
70009;BME280;59542;37.950;-122.338;2022-08-19T10:59:25;101024.81;;;14.75;84.73
70009;BME280;59542;37.950;-122.338;2022-08-19T11:01:54;101028.56;;;14.74;84.89
70009;BME280;59542;37.950;-122.338;2022-08-19T11:04:24;101019.13;;;14.83;84.20
70009;BME280;59542;37.950;-122.338;2022-08-19T11:06:50;101025.53;;;14.82;84.35
70009;BME280;59542;37.950;-122.338;2022-08-19T11:09:22;101029.41;;;14.86;84.05
70009;BME280;59542;37.950;-122.338;2022-08-19T11:11:53;101024.72;;;14.82;83.91
70009;BME280;59542;37.950;-122.338;2022-08-19T11:14:21;101031.53;;;14.84;83.83
70009;BME280;59542;37.950;-122.338;2022-08-19T11:16:49;101024.28;;;14.85;83.99
70009;BME280;59542;37.950;-122.338;2022-08-19T11:19:15;101015.81;;;14.81;83.87
70009;BME280;59542;37.950;-122.338;2022-08-19T11:21:47;101027.34;;;14.88;84.07
70009;BME280;59542;37.950;-122.338;2022-08-19T11:24:17;101025.09;;;14.85;84.59
70009;BME280;59542;37.950;-122.338;2022-08-19T11:26:44;101028.94;;;14.77;84.73
70009;BME280;59542;37.950;-122.338;2022-08-19T11:29:12;101031.63;;;14.77;85.35
70009;BME280;59542;37.950;-122.338;2022-08-19T11:31:42;101024.66;;;14.88;84.54
70009;BME280;59542;37.950;-122.338;2022-08-19T11:34:13;101024.22;;;14.73;84.87
70009;BME280;59542;37.950;-122.338;2022-08-19T11:36:41;101029.47;;;14.68;85.60
70009;BME280;59542;37.950;-122.338;2022-08-19T11:39:10;101027.22;;;14.65;85.19
70009;BME280;59542;37.950;-122.338;2022-08-19T11:41:37;101033.75;;;14.87;84.51
70009;BME280;59542;37.950;-122.338;2022-08-19T11:44:04;101028.06;;;14.95;84.16
70009;BME280;59542;37.950;-122.338;2022-08-19T11:46:35;101030.91;;;14.82;84.07
70009;BME280;59542;37.950;-122.338;2022-08-19T11:49:03;101028.47;;;14.81;83.25
70009;BME280;59542;37.950;-122.338;2022-08-19T11:51:31;101026.25;;;14.77;83.13
70009;BME280;59542;37.950;-122.338;2022-08-19T11:53:58;101028.81;;;14.72;83.80
70009;BME280;59542;37.950;-122.338;2022-08-19T11:56:26;101023.19;;;14.74;84.29
70009;BME280;59542;37.950;-122.338;2022-08-19T11:58:53;101014.16;;;14.80;84.16
70009;BME280;59542;37.950;-122.338;2022-08-19T12:01:21;101014.88;;;14.87;84.34
70009;BME280;59542;37.950;-122.338;2022-08-19T12:03:50;101015.94;;;14.86;84.28
70009;BME280;59542;37.950;-122.338;2022-08-19T12:06:20;101012.56;;;14.91;84.38
70009;BME280;59542;37.950;-122.338;2022-08-19T12:08:49;101011.28;;;14.93;84.32
70009;BME280;59542;37.950;-122.338;2022-08-19T12:11:16;101010.25;;;14.94;84.23
70009;BME280;59542;37.950;-122.338;2022-08-19T12:13:42;101011.41;;;14.98;84.29
70009;BME280;59542;37.950;-122.338;2022-08-19T12:16:17;101012.47;;;15.09;83.99
70009;BME280;59542;37.950;-122.338;2022-08-19T12:18:43;101006.63;;;15.00;84.31
70009;BME280;59542;37.950;-122.338;2022-08-19T12:21:16;101012.56;;;14.91;84.08
70009;BME280;59542;37.950;-122.338;2022-08-19T12:23:43;101008.50;;;15.00;83.74
70009;BME280;59542;37.950;-122.338;2022-08-19T12:26:11;101007.41;;;14.89;84.08
70009;BME280;59542;37.950;-122.338;2022-08-19T12:28:38;101019.28;;;15.00;83.61
70009;BME280;59542;37.950;-122.338;2022-08-19T12:31:05;101018.81;;;15.03;83.65
70009;BME280;59542;37.950;-122.338;2022-08-19T12:33:31;101010.59;;;15.10;83.80
70009;BME280;59542;37.950;-122.338;2022-08-19T12:36:02;101015.31;;;15.14;83.29
70009;BME280;59542;37.950;-122.338;2022-08-19T12:38:29;101022.44;;;15.09;83.77
70009;BME280;59542;37.950;-122.338;2022-08-19T12:40:56;101024.88;;;14.98;84.19
70009;BME280;59542;37.950;-122.338;2022-08-19T12:43:22;101019.84;;;15.02;83.61
70009;BME280;59542;37.950;-122.338;2022-08-19T12:45:48;101022.56;;;15.02;83.25